עמוד ראשי
METAR-TAF:

METAR-TAF

שדות תעופה :

Osorno, צ'ילה

קו רוחב: 40-36-41S, קו אורך: 73-03-38W, גובה: 57מטר

תצפית מזג אוויר נוכחית

הדו"ח נערך לפני 55דקות, בשעה 09:00 UTC
רוח 2קשר עם כיוונים משתנים
טמפרטורת 1 צלסיוס
לחות 100%
לחץ 1023 hPa
ראות: 0600מטר
ערפל,

METAR: SCJO 240900Z AUTO VRB02KT 0600 FG VV001 01/01 Q1023

זמן: 05:55 (09:55 UTC)

תחזית

הדו"ח נערך לפני 23 שעות ו 46דקות, בשעה 10:09 UTC
תחזית בתוקף מ 23 ב 12 UTC עד 23 ב 24 UTC
רוח 10קשר מכיוון צפון/צפון-מזרח
ראות 10 קילומטר או יותר
עננים פזורים בגובה 3000רגל
עננים בינוניים בגובה 7000רגל
זמנית מ -
23 ב 18 UTC עד 23 ב 22 UTC
ראות: 7000מטר
עננים פזורים בגובה 1500רגל
עננים בינוניים בגובה 2500רגל
ממטרי גשם קלים,

TAF: SCJO 231009Z 2312/2324 02010KT 9999 SCT030 BKN070 TN05/2312Z TX09/2318Z TEMPO 2318/2322 7000 -SHRA SCT015 BKN025

תצפיות ותחזיות מזג אוויר לגבי יותר מ- 4,000 שדות תעופה ברחבי העולם. דוחות METAR ו- TAF.

התחנות הזמינות מסומנות בנקודות צהובות ואדומות על גבי המפה.

העבר את העכבר לנקודה הצבעונית על מנת לראות את שם התחנה.

לאחר מכן, לחץ כדי לראות את תוכן ואת תחזיות מזג האוויר.

כדי לשנות את המפה: לחץ על הכפתורים הירוקים עם הפלוס השחור כדי להתקרב; על הכפתור הירוק עם המקף כדי להתרחק; או בחיצים הירוקים למפות סמוכות.


METAR-TAF: